createdAt,value
2017-12-15T08:43:26.397Z,996
2017-12-15T08:44:26.635Z,1060
2017-12-15T08:45:26.312Z,1076
2017-12-15T08:46:26.559Z,1088
2017-12-15T08:47:26.292Z,1140
2017-12-15T08:48:27.341Z,1204
2017-12-15T08:49:26.259Z,1264
2017-12-15T08:50:26.275Z,1324
2017-12-15T08:51:25.988Z,1380
2017-12-15T08:52:26.239Z,1432
2017-12-15T08:53:26.228Z,1484
2017-12-15T08:54:26.219Z,1508
2017-12-15T08:55:26.474Z,1524
2017-12-15T08:56:26.480Z,1536
2017-12-15T08:57:26.191Z,1556
2017-12-15T08:58:26.703Z,1588
2017-12-15T08:59:26.181Z,1628
2017-12-15T09:00:26.178Z,1680
2017-12-15T09:01:26.158Z,1740
2017-12-15T09:02:26.152Z,1832
2017-12-15T09:03:26.136Z,1960
2017-12-15T09:04:26.385Z,2128
2017-12-15T09:05:26.382Z,2304
2017-12-15T09:06:26.125Z,2484
2017-12-15T09:07:26.368Z,2656
2017-12-15T09:08:26.114Z,2812
2017-12-15T09:09:26.098Z,2952
2017-12-15T09:10:26.359Z,3084
2017-12-15T09:11:26.363Z,3172
2017-12-15T09:12:26.349Z,3260
2017-12-15T09:13:25.819Z,3324
2017-12-15T09:14:26.069Z,3388
2017-12-15T09:15:26.067Z,3504
2017-12-15T09:16:26.050Z,3664
2017-12-15T09:17:26.114Z,3752
2017-12-15T09:18:26.354Z,3880
2017-12-15T09:19:26.295Z,3712
2017-12-15T09:20:25.790Z,3700
2017-12-15T09:21:26.033Z,3720
2017-12-15T09:22:26.275Z,3804
2017-12-15T09:23:26.024Z,3876
2017-12-15T09:24:26.010Z,3932
2017-12-15T09:25:26.275Z,4016
2017-12-15T09:26:26.256Z,4136
2017-12-15T09:27:25.995Z,4304
2017-12-15T09:28:25.984Z,4316
2017-12-15T09:29:26.010Z,4324
2017-12-15T09:30:26.239Z,4656
2017-12-15T09:31:25.961Z,4768
2017-12-15T09:32:26.224Z,4824
2017-12-15T09:33:26.204Z,4864
2017-12-15T09:34:25.955Z,4836
2017-12-15T09:35:26.251Z,4860
2017-12-15T09:36:25.983Z,4832
2017-12-15T09:37:26.185Z,5052
2017-12-15T09:38:26.183Z,4916
2017-12-15T09:39:26.186Z,4892
2017-12-15T09:40:26.143Z,4856
2017-12-15T09:41:26.174Z,4876
2017-12-15T09:42:26.161Z,4920
2017-12-15T09:43:26.210Z,5052
2017-12-15T09:44:26.183Z,5008
2017-12-15T09:45:26.170Z,5112
2017-12-15T09:46:26.140Z,5616
2017-12-15T09:47:26.148Z,5420
2017-12-15T09:48:25.952Z,6032
2017-12-15T09:49:26.136Z,6660
2017-12-15T09:50:25.910Z,6068
2017-12-15T09:51:26.238Z,6760
2017-12-15T09:52:25.875Z,5672
2017-12-15T09:53:26.111Z,5556
2017-12-15T09:54:26.115Z,5460
2017-12-15T09:55:25.609Z,5464
2017-12-15T09:56:25.857Z,5492
2017-12-15T09:57:26.109Z,5480
2017-12-15T09:58:26.552Z,5440
2017-12-15T09:59:25.591Z,5392
2017-12-15T10:00:25.846Z,5400
2017-12-15T10:01:26.078Z,5440
2017-12-15T10:02:26.084Z,5364
2017-12-15T10:03:26.121Z,5388
2017-12-15T10:04:25.819Z,5404
2017-12-15T10:05:25.823Z,5488
2017-12-15T10:06:26.060Z,5468
2017-12-15T10:07:25.807Z,5496
2017-12-15T10:08:25.807Z,5508
2017-12-15T10:09:26.062Z,5540
2017-12-15T10:10:26.048Z,5536
2017-12-15T10:11:25.795Z,5540
2017-12-15T10:12:25.791Z,5508
2017-12-15T10:13:26.089Z,5456
2017-12-15T10:14:26.025Z,5420
2017-12-15T10:15:25.769Z,5368
2017-12-15T10:16:25.776Z,5216
2017-12-15T10:17:26.027Z,5164
2017-12-15T10:18:25.767Z,4940
2017-12-15T10:19:25.516Z,4872
2017-12-15T10:20:25.797Z,4716
2017-12-15T10:21:25.759Z,4488
2017-12-15T10:22:26.014Z,4204
2017-12-15T10:52:59.454Z,3236
2017-12-15T10:53:59.454Z,3268
2017-12-15T10:54:59.198Z,3204
2017-12-15T10:55:59.192Z,3172
2017-12-15T10:56:59.690Z,3252
2017-12-15T10:57:59.679Z,3316
2017-12-15T10:58:59.658Z,3224
2017-12-15T10:59:59.654Z,3108
2017-12-15T11:00:59.164Z,3128
2017-12-15T11:01:59.378Z,3144
2017-12-15T11:02:59.637Z,3196
2017-12-15T11:03:59.117Z,3292
2017-12-15T11:04:59.378Z,3264
2017-12-15T11:05:59.660Z,3580
2017-12-15T11:06:59.640Z,3992
2017-12-15T11:07:59.707Z,4188
2017-12-15T11:08:59.592Z,4160
2017-12-15T11:09:59.384Z,4176
2017-12-15T11:10:59.578Z,4076
2017-12-15T11:11:59.320Z,4228
2017-12-15T11:12:59.317Z,4296
2017-12-15T11:13:59.567Z,4424
2017-12-15T11:14:59.308Z,4484
2017-12-15T11:15:59.304Z,4504
2017-12-15T11:16:59.573Z,4656
2017-12-15T11:17:59.557Z,4368
2017-12-15T11:18:58.787Z,4424
2017-12-15T11:19:59.030Z,4580
2017-12-15T11:20:59.025Z,4580
2017-12-15T11:21:59.292Z,4020
2017-12-15T11:22:59.270Z,4212
2017-12-15T11:23:59.269Z,4208
2017-12-15T11:24:59.523Z,3936
2017-12-15T11:25:59.255Z,3904
2017-12-15T11:26:59.247Z,3912
2017-12-15T11:27:59.249Z,3968
2017-12-15T11:28:59.502Z,3888
2017-12-15T11:29:59.502Z,3572
2017-12-15T11:30:59.239Z,3652
2017-12-15T11:31:59.513Z,3792
2017-12-15T11:32:59.507Z,4444
2017-12-15T11:33:59.508Z,4396
2017-12-15T11:34:59.479Z,4120
2017-12-15T11:35:58.977Z,4156
2017-12-15T11:36:59.219Z,4260
2017-12-15T11:37:59.739Z,4264
2017-12-15T11:38:59.465Z,4252
2017-12-15T11:39:58.957Z,4296
2017-12-15T11:40:59.218Z,4600
2017-12-15T11:41:59.199Z,4640
2017-12-15T11:42:59.198Z,4536
2017-12-15T11:43:58.934Z,4420
2017-12-15T11:44:59.445Z,4028
2017-12-15T11:45:59.262Z,3996
2017-12-15T11:46:59.437Z,3796
2017-12-15T11:47:59.187Z,3420
2017-12-15T11:48:59.174Z,3320
2017-12-15T11:49:59.427Z,3336
2017-12-15T11:50:59.173Z,3168
2017-12-15T11:51:59.422Z,3036
2017-12-15T11:53:00.209Z,2584
2017-12-15T11:53:59.475Z,2408
2017-12-15T11:54:59.164Z,2324
2017-12-15T11:55:59.399Z,2200
2017-12-15T11:56:58.902Z,2028
2017-12-15T11:57:59.150Z,1960
2017-12-15T11:58:59.389Z,2056
2017-12-15T11:59:59.384Z,2148
2017-12-15T12:00:59.130Z,2356
2017-12-15T12:01:59.379Z,2636
2017-12-15T12:02:59.121Z,2584
2017-12-15T12:03:59.374Z,3024
2017-12-15T12:04:59.121Z,3576
2017-12-15T12:05:59.126Z,3804
2017-12-15T12:06:59.122Z,3416
2017-12-15T12:08:00.178Z,2960
2017-12-15T12:08:59.353Z,2740
2017-12-15T12:09:59.357Z,2844
2017-12-15T12:10:59.095Z,2848
2017-12-15T12:11:58.590Z,2688
2017-12-15T12:12:59.089Z,2536
2017-12-15T12:13:59.107Z,2456
2017-12-15T12:14:59.331Z,2660
2017-12-15T12:15:59.330Z,2588
2017-12-15T12:16:59.073Z,2680
2017-12-15T12:17:59.350Z,2612
2017-12-15T12:18:59.070Z,2332
2017-12-15T12:19:59.319Z,2228
2017-12-15T12:20:59.319Z,2240
2017-12-15T12:21:59.067Z,2296
2017-12-15T12:22:59.050Z,2116
2017-12-15T12:23:59.326Z,2000
2017-12-15T12:24:59.049Z,2112
2017-12-15T12:25:59.050Z,2160
2017-12-15T12:26:58.788Z,2148
2017-12-15T12:27:59.055Z,2164
2017-12-15T12:28:59.284Z,2188
2017-12-15T12:29:59.281Z,2228
2017-12-15T12:30:58.792Z,2076
2017-12-15T12:31:59.273Z,1940
2017-12-15T12:32:59.025Z,1952
2017-12-15T12:33:59.026Z,1832
2017-12-15T12:34:59.010Z,1832
2017-12-15T12:35:59.266Z,1824
2017-12-15T12:36:59.012Z,1764
2017-12-15T12:38:00.368Z,1672
2017-12-15T12:38:59.004Z,1524
2017-12-15T12:39:58.992Z,1324
2017-12-15T12:40:58.736Z,1136
2017-12-15T12:41:59.286Z,1004
2017-12-15T12:42:58.976Z,892
2017-12-15T12:43:58.974Z,812
2017-12-15T12:44:58.971Z,776
2017-12-15T12:45:58.971Z,780
2017-12-15T12:46:58.787Z,760
2017-12-15T12:47:58.712Z,748
2017-12-15T12:48:58.955Z,772
2017-12-15T12:49:59.206Z,800
2017-12-15T12:50:59.214Z,852
2017-12-15T12:51:58.711Z,904
2017-12-15T12:52:59.198Z,940
2017-12-15T12:53:58.936Z,980
2017-12-15T12:54:58.942Z,1000
2017-12-15T12:55:59.194Z,1008
2017-12-15T12:56:58.666Z,1020
2017-12-15T12:57:58.937Z,1100
2017-12-15T12:58:58.931Z,1184
2017-12-15T12:59:59.171Z,1264
2017-12-15T13:00:58.948Z,1348
2017-12-15T13:01:59.163Z,1424
2017-12-15T13:02:58.640Z,1484
2017-12-15T13:03:58.902Z,1536
2017-12-15T13:04:58.893Z,1556
2017-12-15T13:05:59.131Z,1560
2017-12-15T13:06:59.139Z,1536
2017-12-15T13:07:58.865Z,1516
2017-12-15T13:09:03.236Z,1548
2017-12-15T13:09:59.108Z,1600
2017-12-15T13:10:59.112Z,1692
2017-12-15T13:11:59.120Z,1868
2017-12-15T13:12:58.851Z,2108
2017-12-15T13:13:59.107Z,2368
2017-12-15T13:14:59.085Z,2508
2017-12-15T13:15:58.856Z,2500
2017-12-15T13:16:58.827Z,2564
2017-12-15T13:17:58.820Z,2620
2017-12-15T13:18:58.815Z,2600
2017-12-15T13:19:59.111Z,2436
2017-12-15T13:20:59.059Z,2364
2017-12-15T13:21:58.821Z,2516
2017-12-15T13:22:59.051Z,2632
2017-12-15T13:23:59.047Z,2968
2017-12-15T13:24:58.791Z,3432
2017-12-15T13:25:59.055Z,3320
2017-12-15T13:26:58.781Z,3056
2017-12-15T13:27:59.033Z,2916
2017-12-15T13:28:58.775Z,2984
2017-12-15T13:29:59.022Z,3520
2017-12-15T13:30:59.018Z,3348
2017-12-15T13:31:58.768Z,3208
2017-12-15T13:32:58.509Z,3388
2017-12-15T13:33:58.761Z,3024
2017-12-15T13:34:59.003Z,3088
2017-12-15T13:35:59.000Z,2792
2017-12-15T13:36:58.740Z,2304
2017-12-15T13:37:58.748Z,1940
2017-12-15T13:39:01.540Z,1908
2017-12-15T13:39:58.989Z,2408
2017-12-15T13:40:58.976Z,3124
2017-12-15T13:41:58.718Z,3572
2017-12-15T13:42:58.501Z,3700
2017-12-15T13:43:58.460Z,3624
2017-12-15T13:44:58.967Z,3300
2017-12-15T13:45:58.701Z,3204
2017-12-15T13:46:58.703Z,3060
2017-12-15T13:47:58.951Z,2788
2017-12-15T13:48:58.942Z,2556
2017-12-15T13:49:58.949Z,2740
2017-12-15T13:50:58.953Z,3180
2017-12-15T13:51:58.962Z,3116
2017-12-15T13:52:58.184Z,2904
2017-12-15T13:53:58.928Z,2856
2017-12-15T13:54:58.675Z,2548
2017-12-15T13:55:58.922Z,2184
2017-12-15T13:56:58.924Z,2064
2017-12-15T13:57:58.959Z,1904
2017-12-15T13:58:58.902Z,1836
2017-12-15T13:59:58.648Z,1744
2017-12-15T14:00:58.708Z,1704
2017-12-15T14:01:58.893Z,1792
2017-12-15T14:02:58.639Z,1716
2017-12-15T14:03:58.884Z,1580
2017-12-15T14:04:58.635Z,1468
2017-12-15T14:05:58.367Z,1452
2017-12-15T14:06:58.874Z,1348
2017-12-15T14:07:58.889Z,1224
2017-12-15T14:08:58.622Z,1164
2017-12-15T14:10:00.710Z,1180
2017-12-15T14:10:58.606Z,1196
2017-12-15T14:11:58.848Z,1136
2017-12-15T14:12:58.840Z,1108
2017-12-15T14:13:58.831Z,1112
2017-12-15T14:14:58.093Z,1140
2017-12-15T14:15:58.827Z,1216
2017-12-15T14:16:58.827Z,1296
2017-12-15T14:17:58.584Z,1308
2017-12-15T14:18:58.557Z,1272
2017-12-15T14:19:58.305Z,1276
2017-12-15T14:20:58.547Z,1360
2017-12-15T14:21:58.554Z,1548
2017-12-15T14:22:58.284Z,1736
2017-12-15T14:23:58.538Z,1828
2017-12-15T14:24:58.531Z,1924
2017-12-15T14:25:58.775Z,1956
2017-12-15T14:26:58.789Z,1928
2017-12-15T14:27:58.827Z,1892
2017-12-15T14:28:58.249Z,1852
2017-12-15T14:29:58.505Z,1824
2017-12-15T14:30:58.750Z,1796
2017-12-15T14:31:58.481Z,1776
2017-12-15T14:32:58.736Z,1756
2017-12-15T14:33:58.472Z,1728
2017-12-15T14:34:58.474Z,1696
2017-12-15T14:35:58.717Z,1684
2017-12-15T14:36:58.711Z,1688
2017-12-15T14:37:58.730Z,1688
2017-12-15T14:38:58.506Z,1724
2017-12-15T14:39:58.950Z,1740
2017-12-15T14:40:58.430Z,1716
2017-12-15T14:41:58.419Z,1724
2017-12-15T14:42:58.672Z,1756
2017-12-15T14:43:58.420Z,1700
2017-12-15T14:44:58.164Z,1632
2017-12-15T14:45:58.668Z,1564
2017-12-15T14:46:58.658Z,1516
2017-12-15T14:47:58.389Z,1424
2017-12-15T14:48:58.195Z,1340
2017-12-15T14:49:58.620Z,1276
2017-12-15T14:50:58.131Z,1220
2017-12-15T14:51:58.613Z,1168
2017-12-15T14:52:58.613Z,1116
2017-12-15T14:53:58.099Z,1072
2017-12-15T14:54:59.647Z,1036
2017-12-15T14:55:58.093Z,976
2017-12-15T14:56:58.583Z,924
2017-12-15T14:57:58.327Z,884
2017-12-15T14:58:58.321Z,848
2017-12-15T14:59:58.627Z,808
2017-12-15T15:00:58.568Z,776
2017-12-15T15:01:58.550Z,748
2017-12-15T15:02:58.288Z,716
2017-12-15T15:03:58.551Z,688
2017-12-15T15:04:58.608Z,652
2017-12-15T15:05:58.530Z,624
2017-12-15T15:06:58.516Z,596
2017-12-15T15:07:58.005Z,564
2017-12-15T15:08:58.498Z,544
2017-12-15T15:09:58.518Z,508
2017-12-15T15:10:58.500Z,480
2017-12-15T15:11:57.976Z,452
2017-12-15T15:12:58.223Z,428
2017-12-15T15:13:58.476Z,404
2017-12-15T15:14:58.476Z,380
2017-12-15T15:15:58.502Z,360
2017-12-15T15:16:58.201Z,336
2017-12-15T15:17:58.442Z,316
2017-12-15T15:18:58.198Z,296
2017-12-15T15:19:58.190Z,276
2017-12-15T15:20:58.425Z,256
2017-12-15T15:21:58.604Z,236
2017-12-15T15:22:58.419Z,216
2017-12-15T15:23:58.412Z,204
2017-12-15T15:24:58.148Z,192
2017-12-15T15:25:59.194Z,180
2017-12-15T15:26:58.156Z,160
2017-12-15T15:27:58.372Z,148
2017-12-15T15:28:58.128Z,136
2017-12-15T15:29:58.360Z,124
2017-12-15T15:30:57.848Z,108
2017-12-15T15:31:58.113Z,100
2017-12-15T15:32:58.083Z,92
2017-12-15T15:33:57.834Z,80
2017-12-15T15:34:58.069Z,72
2017-12-15T15:35:58.344Z,64
2017-12-15T15:36:58.308Z,52
2017-12-15T15:37:58.307Z,48
2017-12-15T15:38:58.048Z,44
2017-12-15T15:39:58.071Z,36
2017-12-15T15:40:59.899Z,32
2017-12-15T15:41:58.285Z,28
2017-12-15T15:42:58.273Z,24
2017-12-15T15:43:57.500Z,20
2017-12-15T15:44:57.999Z,20
2017-12-15T15:45:57.755Z,12
2017-12-15T15:46:58.265Z,12
2017-12-15T15:47:58.232Z,12
2017-12-15T15:48:57.968Z,8
2017-12-15T15:49:57.959Z,8
2017-12-15T15:50:58.251Z,8
2017-12-15T15:51:57.948Z,4
2017-12-15T15:52:57.943Z,4
2017-12-15T15:53:57.950Z,4
2017-12-15T15:54:57.935Z,4
2017-12-15T15:55:58.219Z,4
2017-12-15T15:56:58.189Z,0
2017-12-15T15:57:57.902Z,0
2017-12-15T15:58:57.900Z,4
2017-12-15T15:59:57.902Z,4
2017-12-15T16:00:57.890Z,0
2017-12-15T16:01:57.886Z,0
2017-12-15T16:02:57.868Z,0
2017-12-15T16:03:57.858Z,0
2017-12-15T16:04:57.906Z,0
2017-12-15T16:05:57.862Z,0
2017-12-15T16:06:57.839Z,0
2017-12-15T16:07:57.845Z,0
2017-12-15T16:08:58.099Z,0
2017-12-15T16:09:58.073Z,0
2017-12-15T16:10:59.872Z,0
2017-12-15T16:11:57.804Z,0
2017-12-15T16:12:57.790Z,0
2017-12-15T16:13:57.789Z,0
2017-12-15T16:14:58.027Z,0
2017-12-15T16:15:57.767Z,0
2017-12-15T16:16:58.023Z,0
2017-12-15T16:17:57.508Z,0
2017-12-15T16:18:58.011Z,0
2017-12-15T16:19:57.988Z,0
2017-12-15T16:20:57.724Z,0
2017-12-15T16:21:57.473Z,0
2017-12-15T16:22:57.466Z,0
2017-12-15T16:23:57.965Z,0
2017-12-15T16:24:57.956Z,0
2017-12-15T16:25:57.691Z,0
2017-12-15T16:26:57.680Z,0
2017-12-15T16:27:57.415Z,0
2017-12-15T16:28:57.423Z,0
2017-12-15T16:29:57.657Z,0
2017-12-15T16:30:57.654Z,0
2017-12-15T16:31:57.892Z,0
2017-12-15T16:32:57.888Z,0
2017-12-15T16:33:57.882Z,0
2017-12-15T16:34:57.618Z,0
2017-12-15T16:35:57.610Z,0
2017-12-15T16:36:57.616Z,0
2017-12-15T16:37:57.591Z,0
2017-12-15T16:38:57.587Z,0
2017-12-15T16:39:57.322Z,0
2017-12-15T16:41:00.288Z,0
2017-12-15T16:41:57.838Z,0
2017-12-15T16:42:57.546Z,0
2017-12-15T16:43:57.563Z,0
2017-12-15T16:44:57.538Z,0
2017-12-15T16:45:57.531Z,0
2017-12-15T16:46:57.529Z,0
2017-12-15T16:47:57.257Z,0
2017-12-15T16:48:57.506Z,0
2017-12-15T16:49:57.740Z,0
2017-12-15T16:50:57.489Z,0
2017-12-15T16:51:57.744Z,0
2017-12-15T16:52:57.486Z,0
2017-12-15T16:53:57.706Z,0
2017-12-15T16:54:57.476Z,0
2017-12-15T16:55:57.689Z,0
2017-12-15T16:56:56.937Z,0
2017-12-15T16:57:57.433Z,0
2017-12-15T16:58:57.438Z,0
2017-12-15T16:59:57.403Z,0
2017-12-15T17:00:57.645Z,0
2017-12-15T17:01:57.652Z,0
2017-12-15T17:02:57.192Z,0
2017-12-15T17:03:57.630Z,0
2017-12-15T17:04:57.613Z,0
2017-12-15T17:05:57.613Z,0
2017-12-15T17:06:57.107Z,0
2017-12-15T17:07:57.609Z,0
2017-12-15T17:08:57.330Z,0
2017-12-15T17:09:57.600Z,0
2017-12-15T17:10:57.613Z,0
2017-12-15T17:12:01.862Z,0
2017-12-15T17:12:57.305Z,0
2017-12-15T17:13:57.551Z,0
2017-12-15T17:14:57.280Z,0
2017-12-15T17:15:57.027Z,0
2017-12-15T17:16:57.532Z,0
2017-12-15T17:17:57.536Z,0
2017-12-15T17:18:57.256Z,0
2017-12-15T17:19:57.246Z,0
2017-12-15T17:20:57.271Z,0
2017-12-15T17:21:57.268Z,0
2017-12-15T17:22:57.217Z,0
2017-12-15T17:23:57.211Z,0
2017-12-15T17:24:57.462Z,0
2017-12-15T17:25:57.453Z,0
2017-12-15T17:26:57.216Z,0
2017-12-15T17:27:57.430Z,0
2017-12-15T17:28:57.419Z,0
2017-12-15T17:29:57.253Z,0
2017-12-15T17:30:57.467Z,0
2017-12-15T17:31:57.393Z,0
2017-12-15T17:32:57.399Z,0
2017-12-15T17:33:57.120Z,0
2017-12-15T17:34:57.188Z,0
2017-12-15T17:35:57.362Z,0
2017-12-15T17:36:57.361Z,0
2017-12-15T17:37:57.347Z,0
2017-12-15T17:38:57.406Z,0
2017-12-15T17:39:57.149Z,0
2017-12-15T17:40:57.317Z,0
2017-12-15T17:41:57.064Z,0
2017-12-15T17:42:57.063Z,0
2017-12-15T17:43:56.850Z,0
2017-12-15T17:44:57.044Z,0
2017-12-15T17:45:56.868Z,0
2017-12-15T17:46:57.273Z,0
2017-12-15T17:47:56.501Z,0
2017-12-15T17:48:57.009Z,0
2017-12-15T17:49:56.983Z,0
2017-12-15T17:50:57.246Z,0
2017-12-15T17:51:57.237Z,0
2017-12-15T17:52:57.264Z,0
2017-12-15T17:53:57.220Z,0
2017-12-15T17:54:57.202Z,0
2017-12-15T17:55:56.681Z,0
2017-12-15T17:56:57.175Z,0
2017-12-15T17:57:56.985Z,0
2017-12-15T17:58:56.699Z,0
2017-12-15T17:59:57.152Z,0
2017-12-15T18:00:57.206Z,0
2017-12-15T18:01:57.148Z,0
2017-12-15T18:02:57.137Z,0
2017-12-15T18:03:57.184Z,0
2017-12-15T18:04:57.117Z,0
2017-12-15T18:05:57.109Z,0
2017-12-15T18:06:57.097Z,0
2017-12-15T18:07:56.836Z,0
2017-12-15T18:08:56.838Z,0
2017-12-15T18:09:56.567Z,0
2017-12-15T18:10:56.881Z,0
2017-12-15T18:11:57.144Z,0
2017-12-15T18:12:57.314Z,0
2017-12-15T18:13:57.039Z,0
2017-12-15T18:14:56.538Z,0
2017-12-15T18:15:56.263Z,0
2017-12-15T18:16:56.507Z,0
2017-12-15T18:17:56.756Z,0
2017-12-15T18:18:56.749Z,0
2017-12-15T18:19:56.992Z,0
2017-12-15T18:20:56.735Z,0
2017-12-15T18:21:56.987Z,0
2017-12-15T18:22:56.459Z,0
2017-12-15T18:23:56.450Z,0
2017-12-15T18:24:56.710Z,0
2017-12-15T18:25:56.692Z,0
2017-12-15T18:26:56.930Z,0
2017-12-15T18:27:56.469Z,0
2017-12-15T18:28:56.915Z,0
2017-12-15T18:29:56.914Z,0
2017-12-15T18:30:56.652Z,0
2017-12-15T18:31:56.635Z,0
2017-12-15T18:32:56.374Z,0
2017-12-15T18:33:56.374Z,0
2017-12-15T18:34:56.885Z,0
2017-12-15T18:35:56.361Z,0
2017-12-15T18:36:56.349Z,0
2017-12-15T18:37:56.844Z,0
2017-12-15T18:38:56.833Z,0
2017-12-15T18:39:56.571Z,0
2017-12-15T18:40:56.572Z,0
2017-12-15T18:41:56.307Z,0
2017-12-15T18:43:00.401Z,0
2017-12-15T18:43:56.545Z,0
2017-12-15T18:44:56.535Z,0
2017-12-15T18:45:56.780Z,0
2017-12-15T18:46:56.523Z,0
2017-12-15T18:47:56.521Z,0
2017-12-15T18:48:56.765Z,0
2017-12-15T18:49:56.559Z,0
2017-12-15T18:50:56.484Z,0
2017-12-15T18:51:56.041Z,0
2017-12-15T18:52:56.489Z,0
2017-12-15T18:53:56.469Z,0
2017-12-15T18:54:56.473Z,0
2017-12-15T18:55:56.204Z,0
2017-12-15T18:56:56.531Z,0
2017-12-15T18:57:56.173Z,0
2017-12-15T18:58:56.218Z,0
2017-12-15T18:59:56.170Z,0
2017-12-15T19:00:56.157Z,0
2017-12-15T19:01:56.689Z,0
2017-12-15T19:02:56.137Z,0
2017-12-15T19:03:56.377Z,0
2017-12-15T19:04:56.377Z,0
2017-12-15T19:05:56.119Z,0
2017-12-15T19:06:56.175Z,0
2017-12-15T19:07:56.344Z,0
2017-12-15T19:08:56.590Z,0
2017-12-15T19:09:55.810Z,0
2017-12-15T19:10:56.378Z,0
2017-12-15T19:11:56.312Z,0
2017-12-15T19:12:56.569Z,0
2017-12-15T19:13:59.481Z,0
2017-12-15T19:14:56.541Z,0
2017-12-15T19:15:56.325Z,0
2017-12-15T19:16:56.279Z,0
2017-12-15T19:17:56.247Z,0
2017-12-15T19:18:56.237Z,0
2017-12-15T19:19:56.504Z,0
2017-12-15T19:20:55.964Z,0
2017-12-15T19:21:56.466Z,0
2017-12-15T19:22:56.203Z,0
2017-12-15T19:23:56.443Z,0
2017-12-15T19:24:56.186Z,0
2017-12-15T19:25:56.184Z,0
2017-12-15T19:26:55.981Z,0
2017-12-15T19:27:56.274Z,0
2017-12-15T19:28:56.154Z,0
2017-12-15T19:29:56.408Z,0
2017-12-15T19:30:56.143Z,0
2017-12-15T19:31:55.887Z,0
2017-12-15T19:32:56.130Z,0
2017-12-15T19:33:56.387Z,0
2017-12-15T19:34:55.866Z,0
2017-12-15T19:35:56.093Z,0
2017-12-15T19:36:55.837Z,0
2017-12-15T19:37:55.842Z,0
2017-12-15T19:38:56.331Z,0
2017-12-15T19:39:56.306Z,0
2017-12-15T19:40:56.052Z,0
2017-12-15T19:41:55.782Z,0
2017-12-15T19:42:56.038Z,0
2017-12-15T19:43:56.042Z,0
2017-12-15T19:44:55.762Z,0
2017-12-15T19:45:56.104Z,0
2017-12-15T19:46:56.269Z,0
2017-12-15T19:47:56.025Z,0
2017-12-15T19:48:56.003Z,0
2017-12-15T19:49:55.972Z,0
2017-12-15T19:50:55.972Z,0
2017-12-15T19:51:55.957Z,0
2017-12-15T19:52:55.445Z,0
2017-12-15T19:53:55.956Z,0
2017-12-15T19:54:56.197Z,0
2017-12-15T19:55:55.948Z,0
2017-12-15T19:56:55.685Z,0
2017-12-15T19:57:55.911Z,0
2017-12-15T19:58:56.194Z,0
2017-12-15T19:59:56.135Z,0
2017-12-15T20:00:55.931Z,0
2017-12-15T20:01:56.155Z,0
2017-12-15T20:02:55.891Z,0
2017-12-15T20:03:56.134Z,0
2017-12-15T20:04:55.371Z,0
2017-12-15T20:05:56.112Z,0
2017-12-15T20:06:56.137Z,0
2017-12-15T20:07:56.128Z,0
2017-12-15T20:08:56.082Z,0
2017-12-15T20:09:55.798Z,0
2017-12-15T20:10:56.068Z,0
2017-12-15T20:11:56.084Z,0
2017-12-15T20:12:56.026Z,0
2017-12-15T20:13:55.522Z,0
2017-12-15T20:14:57.335Z,0
2017-12-15T20:15:55.510Z,0
2017-12-15T20:16:56.020Z,0
2017-12-15T20:17:55.983Z,0
2017-12-15T20:18:55.957Z,0
2017-12-15T20:19:55.474Z,0
2017-12-15T20:20:55.973Z,0
2017-12-15T20:21:55.717Z,0
2017-12-15T20:22:55.969Z,0
2017-12-15T20:23:55.951Z,0
2017-12-15T20:24:55.939Z,0
2017-12-15T20:25:55.683Z,0
2017-12-15T20:26:55.686Z,0
2017-12-15T20:27:55.394Z,0
2017-12-15T20:28:55.930Z,0
2017-12-15T20:29:56.448Z,0
2017-12-15T20:30:55.914Z,0
2017-12-15T20:31:55.848Z,0
2017-12-15T20:32:55.611Z,0
2017-12-15T20:33:55.601Z,0
2017-12-15T20:34:55.451Z,0
2017-12-15T20:35:55.594Z,0
2017-12-15T20:36:55.556Z,0
2017-12-15T20:37:55.842Z,0
2017-12-15T20:38:55.847Z,0
2017-12-15T20:39:55.543Z,0
2017-12-15T20:40:55.306Z,0
2017-12-15T20:41:55.535Z,0
2017-12-15T20:42:55.541Z,0
2017-12-15T20:43:55.528Z,0
2017-12-15T20:44:56.614Z,0
2017-12-15T20:45:55.755Z,0
2017-12-15T20:46:55.511Z,0
2017-12-15T20:47:55.532Z,0
2017-12-15T20:48:55.195Z,0
2017-12-15T20:49:55.704Z,0
2017-12-15T20:50:55.444Z,0
2017-12-15T20:51:55.467Z,0
2017-12-15T20:52:55.176Z,0
2017-12-15T20:53:55.696Z,0
2017-12-15T20:54:55.650Z,0
2017-12-15T20:55:54.910Z,0
2017-12-15T20:56:55.432Z,0
2017-12-15T20:57:55.682Z,0
2017-12-15T20:58:55.133Z,0
2017-12-15T20:59:54.903Z,0
2017-12-15T21:00:55.104Z,0
2017-12-15T21:01:55.408Z,0
2017-12-15T21:02:55.601Z,0
2017-12-15T21:03:55.567Z,0
2017-12-15T21:04:55.597Z,0
2017-12-15T21:05:55.378Z,0
2017-12-15T21:06:55.324Z,0
2017-12-15T21:07:55.322Z,0
2017-12-15T21:08:55.289Z,0
2017-12-15T21:09:55.605Z,0
2017-12-15T21:10:55.560Z,0
2017-12-15T21:11:55.289Z,0
2017-12-15T21:12:55.272Z,0
2017-12-15T21:13:55.545Z,0
2017-12-15T21:14:55.293Z,0
2017-12-15T21:15:54.997Z,0
2017-12-15T21:16:54.968Z,0
2017-12-15T21:17:55.507Z,0
2017-12-15T21:18:55.497Z,0
2017-12-15T21:19:55.182Z,0
2017-12-15T21:20:55.255Z,0
2017-12-15T21:21:55.204Z,0
2017-12-15T21:22:54.946Z,0
2017-12-15T21:23:55.439Z,0
2017-12-15T21:24:55.489Z,0
2017-12-15T21:25:55.189Z,0
2017-12-15T21:26:55.193Z,0
2017-12-15T21:27:55.144Z,0
2017-12-15T21:28:55.379Z,0
2017-12-15T21:29:55.144Z,0
2017-12-15T21:30:55.430Z,0
2017-12-15T21:31:55.379Z,0
2017-12-15T21:32:55.147Z,0
2017-12-15T21:33:55.382Z,0
2017-12-15T21:34:55.336Z,0
2017-12-15T21:35:55.059Z,0
2017-12-15T21:36:55.076Z,0
2017-12-15T21:37:54.784Z,0
2017-12-15T21:38:55.344Z,0
2017-12-15T21:39:55.332Z,0
2017-12-15T21:40:55.057Z,0
2017-12-15T21:41:55.024Z,0
2017-12-15T21:42:55.273Z,0
2017-12-15T21:43:55.023Z,0
2017-12-15T21:44:54.971Z,0
2017-12-15T21:45:56.044Z,0
2017-12-15T21:46:55.195Z,0
2017-12-15T21:47:54.743Z,0
2017-12-15T21:48:54.967Z,0
2017-12-15T21:49:55.219Z,0
2017-12-15T21:50:54.720Z,0
2017-12-15T21:51:55.223Z,0
2017-12-15T21:52:54.963Z,0
2017-12-15T21:53:54.920Z,0
2017-12-15T21:54:54.665Z,0
2017-12-15T21:55:55.339Z,0
2017-12-15T21:56:54.907Z,0
2017-12-15T21:57:54.869Z,0
2017-12-15T21:58:55.136Z,0
2017-12-15T21:59:54.621Z,0
2017-12-15T22:00:54.877Z,0
2017-12-15T22:01:54.874Z,0
2017-12-15T22:02:54.840Z,0
2017-12-15T22:03:55.131Z,0
2017-12-15T22:04:54.830Z,0
2017-12-15T22:05:54.852Z,0
2017-12-15T22:06:55.069Z,0
2017-12-15T22:07:54.803Z,0
2017-12-15T22:08:54.776Z,0
2017-12-15T22:09:54.872Z,0
2017-12-15T22:10:55.025Z,0
2017-12-15T22:11:54.770Z,0
2017-12-15T22:12:55.027Z,0
2017-12-15T22:13:54.467Z,0
2017-12-15T22:14:54.480Z,0
2017-12-15T22:15:55.911Z,0
2017-12-15T22:16:54.737Z,0
2017-12-15T22:17:54.464Z,0
2017-12-15T22:18:54.962Z,0
2017-12-15T22:19:54.985Z,0
2017-12-15T22:20:54.952Z,0
2017-12-15T22:21:54.701Z,0
2017-12-15T22:22:54.935Z,0
2017-12-15T22:23:54.677Z,0
2017-12-15T22:24:54.401Z,0
2017-12-15T22:25:54.948Z,0
2017-12-15T22:26:54.907Z,0
2017-12-15T22:27:54.637Z,0
2017-12-15T22:28:54.893Z,0
2017-12-15T22:29:54.890Z,0
2017-12-15T22:30:54.628Z,0
2017-12-15T22:31:54.856Z,0
2017-12-15T22:32:54.307Z,0
2017-12-15T22:33:54.352Z,0
2017-12-15T22:34:54.583Z,0
2017-12-15T22:35:54.576Z,0
2017-12-15T22:36:54.816Z,0
2017-12-15T22:37:54.283Z,0
2017-12-15T22:38:54.823Z,0
2017-12-15T22:39:54.540Z,0
2017-12-15T22:40:54.521Z,0
2017-12-15T22:41:54.520Z,0
2017-12-15T22:42:54.812Z,0
2017-12-15T22:43:54.781Z,0
2017-12-15T22:44:54.491Z,0
2017-12-15T22:45:57.134Z,0
2017-12-15T22:46:54.742Z,0
2017-12-15T22:47:54.708Z,0
2017-12-15T22:48:54.250Z,0
2017-12-15T22:49:54.478Z,0
2017-12-15T22:50:54.437Z,0
2017-12-15T22:51:54.692Z,0
2017-12-15T22:52:54.429Z,0
2017-12-15T22:53:54.434Z,0
2017-12-15T22:54:54.670Z,0
2017-12-15T22:55:54.421Z,0
2017-12-15T22:56:54.386Z,0
2017-12-15T22:57:54.613Z,0
2017-12-15T22:58:54.116Z,0
2017-12-15T22:59:54.404Z,0
2017-12-15T23:00:54.358Z,0
2017-12-15T23:01:54.578Z,0
2017-12-15T23:02:54.120Z,0
2017-12-15T23:03:54.558Z,0
2017-12-15T23:04:54.317Z,0
2017-12-15T23:05:54.577Z,0
2017-12-15T23:06:54.049Z,0
2017-12-15T23:07:54.568Z,0
2017-12-15T23:08:54.605Z,0
2017-12-15T23:09:54.538Z,0
2017-12-15T23:10:53.998Z,0
2017-12-15T23:11:54.523Z,0
2017-12-15T23:12:54.272Z,0
2017-12-15T23:13:54.491Z,0
2017-12-15T23:14:54.528Z,0
2017-12-15T23:15:54.237Z,0
2017-12-15T23:16:56.107Z,0
2017-12-15T23:17:54.204Z,0
2017-12-15T23:18:54.473Z,0